createdAt,value
2023-12-17T00:01:11.295Z,-1.24
2023-12-17T00:03:38.930Z,-1.27
2023-12-17T00:06:06.664Z,-1.35
2023-12-17T00:08:33.763Z,-1.39
2023-12-17T00:11:00.924Z,-1.42
2023-12-17T00:13:28.106Z,-1.38
2023-12-17T00:15:55.241Z,-1.39
2023-12-17T00:18:22.643Z,-1.42
2023-12-17T00:20:49.767Z,-1.45
2023-12-17T00:23:16.798Z,-1.48
2023-12-17T00:25:43.788Z,-1.49
2023-12-17T00:28:10.870Z,-1.56
2023-12-17T00:30:38.168Z,-1.58
2023-12-17T00:33:05.527Z,-1.64
2023-12-17T00:35:32.686Z,-1.62
2023-12-17T00:37:59.935Z,-1.67
2023-12-17T00:40:26.949Z,-1.70
2023-12-17T00:42:54.129Z,-1.69
2023-12-17T00:45:21.311Z,-1.72
2023-12-17T00:47:48.663Z,-1.80
2023-12-17T00:50:15.783Z,-1.82
2023-12-17T00:52:43.105Z,-1.83
2023-12-17T00:55:10.184Z,-1.90
2023-12-17T00:57:37.413Z,-2.08
2023-12-17T01:00:05.140Z,-2.12
2023-12-17T01:02:32.278Z,-2.18
2023-12-17T01:04:59.382Z,-2.21
2023-12-17T01:07:26.630Z,-2.21
2023-12-17T01:09:53.759Z,-2.24
2023-12-17T01:12:21.217Z,-2.28
2023-12-17T01:14:48.641Z,-2.35
2023-12-17T01:17:15.735Z,-2.37
2023-12-17T01:19:43.045Z,-2.37
2023-12-17T01:22:10.128Z,-2.40
2023-12-17T01:24:37.178Z,-2.46
2023-12-17T01:27:04.331Z,-2.52
2023-12-17T01:29:31.417Z,-2.59
2023-12-17T01:31:59.044Z,-2.69
2023-12-17T01:34:27.445Z,-2.81
2023-12-17T01:36:54.503Z,-2.86
2023-12-17T01:39:21.521Z,-2.93
2023-12-17T01:41:48.773Z,-3.01
2023-12-17T01:44:15.809Z,-3.05
2023-12-17T01:46:42.757Z,-3.12
2023-12-17T01:49:10.042Z,-3.21
2023-12-17T01:51:37.465Z,-3.25
2023-12-17T01:54:04.838Z,-3.28
2023-12-17T01:56:31.917Z,-3.39
2023-12-17T01:58:58.975Z,-3.45
2023-12-17T02:01:25.969Z,-3.51
2023-12-17T02:03:53.168Z,-3.56
2023-12-17T02:06:20.290Z,-3.62
2023-12-17T02:08:47.441Z,-3.68
2023-12-17T02:11:14.463Z,-3.69
2023-12-17T02:13:41.718Z,-3.75
2023-12-17T02:16:08.915Z,-3.80
2023-12-17T02:18:36.231Z,-3.86
2023-12-17T02:21:03.404Z,-3.90
2023-12-17T02:23:30.741Z,-3.90
2023-12-17T02:25:57.800Z,-3.96
2023-12-17T02:28:24.831Z,-4.04
2023-12-17T02:30:51.850Z,-4.04
2023-12-17T02:33:19.027Z,-4.06
2023-12-17T02:35:46.246Z,-4.08
2023-12-17T02:38:13.272Z,-4.14
2023-12-17T02:40:41.298Z,-4.14
2023-12-17T02:43:08.351Z,-4.08
2023-12-17T02:45:35.500Z,-4.08
2023-12-17T02:48:02.851Z,-4.11
2023-12-17T02:50:30.265Z,-4.19
2023-12-17T02:52:57.344Z,-4.19
2023-12-17T02:55:24.366Z,-4.27
2023-12-17T02:57:52.829Z,-4.35
2023-12-17T03:00:20.109Z,-4.41
2023-12-17T03:02:47.479Z,-4.45
2023-12-17T03:05:14.778Z,-4.46
2023-12-17T03:07:42.158Z,-4.48
2023-12-17T03:10:11.005Z,-4.52
2023-12-17T03:12:38.091Z,-4.54
2023-12-17T03:15:06.318Z,-4.52
2023-12-17T03:17:36.652Z,-4.49
2023-12-17T03:20:05.694Z,-4.49
2023-12-17T03:22:32.953Z,-4.48
2023-12-17T03:25:00.300Z,-4.51
2023-12-17T03:27:27.325Z,-4.55
2023-12-17T03:29:54.536Z,-4.64
2023-12-17T03:32:22.103Z,-4.65
2023-12-17T03:34:49.370Z,-4.71
2023-12-17T03:37:16.603Z,-4.72
2023-12-17T03:39:43.657Z,-4.75
2023-12-17T03:42:10.730Z,-4.75
2023-12-17T03:44:38.058Z,-4.82
2023-12-17T03:47:05.032Z,-4.86
2023-12-17T03:49:32.249Z,-4.86
2023-12-17T03:51:59.308Z,-4.89
2023-12-17T03:54:26.501Z,-4.89
2023-12-17T03:56:53.568Z,-4.92
2023-12-17T03:59:20.701Z,-4.94
2023-12-17T04:01:48.648Z,-4.99
2023-12-17T04:04:15.930Z,-5.03
2023-12-17T04:06:43.809Z,-5.08
2023-12-17T04:09:11.540Z,-5.11
2023-12-17T04:11:38.701Z,-5.13
2023-12-17T04:14:05.828Z,-5.17
2023-12-17T04:16:33.112Z,-5.20
2023-12-17T04:19:00.226Z,-5.20
2023-12-17T04:21:27.365Z,-5.20
2023-12-17T04:23:55.510Z,-5.24
2023-12-17T04:26:22.694Z,-5.31
2023-12-17T04:28:49.753Z,-5.32
2023-12-17T04:31:16.915Z,-5.31
2023-12-17T04:33:44.327Z,-5.27
2023-12-17T04:36:11.602Z,-5.27
2023-12-17T04:38:39.166Z,-5.28
2023-12-17T04:41:06.463Z,-5.35
2023-12-17T04:43:33.569Z,-5.36
2023-12-17T04:46:00.711Z,-5.39
2023-12-17T04:48:27.967Z,-5.41
2023-12-17T04:50:55.178Z,-5.45
2023-12-17T04:53:22.267Z,-5.45
2023-12-17T04:55:49.212Z,-5.51
2023-12-17T04:58:16.207Z,-5.54
2023-12-17T05:00:43.261Z,-5.55
2023-12-17T05:03:10.832Z,-5.55
2023-12-17T05:05:38.044Z,-5.59
2023-12-17T05:08:05.905Z,-5.56
2023-12-17T05:10:33.137Z,-5.58
2023-12-17T05:13:00.218Z,-5.52
2023-12-17T05:15:27.274Z,-5.61
2023-12-17T05:17:54.341Z,-5.65
2023-12-17T05:20:21.493Z,-5.62
2023-12-17T05:22:48.440Z,-5.63
2023-12-17T05:25:16.776Z,-5.61
2023-12-17T05:27:44.412Z,-5.62
2023-12-17T05:30:12.665Z,-5.63
2023-12-17T05:32:40.033Z,-5.66
2023-12-17T05:35:07.693Z,-5.63
2023-12-17T05:37:34.708Z,-5.65
2023-12-17T05:40:01.771Z,-5.58
2023-12-17T05:42:28.870Z,-5.58
2023-12-17T05:44:55.964Z,-5.62
2023-12-17T05:47:23.083Z,-5.63
2023-12-17T05:49:50.287Z,-5.62
2023-12-17T05:52:18.391Z,-5.63
2023-12-17T05:54:45.745Z,-5.56
2023-12-17T05:57:13.163Z,-5.50
2023-12-17T05:59:40.222Z,-5.30
2023-12-17T06:02:08.853Z,-5.08
2023-12-17T06:04:36.036Z,-4.93
2023-12-17T06:07:03.230Z,-4.69
2023-12-17T06:09:30.799Z,-4.42
2023-12-17T06:11:59.235Z,-4.04
2023-12-17T06:14:26.630Z,-3.62
2023-12-17T06:16:53.780Z,-3.07
2023-12-17T06:19:21.327Z,-2.32
2023-12-17T06:21:48.933Z,-1.56
2023-12-17T06:24:16.212Z,-0.87
2023-12-17T06:26:43.303Z,-0.08
2023-12-17T06:29:15.110Z,0.69
2023-12-17T06:31:42.440Z,1.37
2023-12-17T06:34:09.647Z,2.04
2023-12-17T06:36:36.730Z,2.57
2023-12-17T06:39:04.377Z,2.94
2023-12-17T06:41:31.485Z,3.23
2023-12-17T06:43:58.566Z,3.52
2023-12-17T06:46:25.669Z,3.76
2023-12-17T06:48:53.799Z,4.15
2023-12-17T06:51:21.335Z,4.29
2023-12-17T06:53:50.353Z,4.55
2023-12-17T06:56:18.447Z,4.79
2023-12-17T06:58:45.478Z,4.97
2023-12-17T07:01:15.766Z,5.14
2023-12-17T07:03:43.446Z,5.46
2023-12-17T07:06:13.053Z,5.89
2023-12-17T07:08:40.316Z,6.25
2023-12-17T07:11:07.479Z,6.62
2023-12-17T07:13:34.733Z,6.55
2023-12-17T07:16:01.928Z,6.90
2023-12-17T07:18:29.149Z,7.35
2023-12-17T07:20:56.442Z,7.79
2023-12-17T07:23:25.900Z,7.97
2023-12-17T07:25:53.711Z,7.89
2023-12-17T07:28:20.759Z,7.92
2023-12-17T07:30:47.904Z,8.09
2023-12-17T07:33:15.415Z,8.40
2023-12-17T07:35:42.684Z,8.44
2023-12-17T07:38:09.630Z,8.41
2023-12-17T07:40:36.679Z,8.38
2023-12-17T07:43:03.919Z,8.85
2023-12-17T07:45:31.045Z,9.37
2023-12-17T07:47:58.274Z,9.79
2023-12-17T07:50:25.434Z,10.17
2023-12-17T07:52:52.517Z,10.05
2023-12-17T07:55:19.624Z,9.34
2023-12-17T07:57:46.726Z,8.90
2023-12-17T08:00:14.641Z,8.55
2023-12-17T08:02:41.777Z,8.81
2023-12-17T08:05:09.559Z,9.02
2023-12-17T08:07:38.950Z,9.06
2023-12-17T08:10:07.587Z,9.33
2023-12-17T08:12:34.995Z,9.67
2023-12-17T08:15:02.094Z,10.12
2023-12-17T08:17:29.140Z,10.53
2023-12-17T08:19:56.354Z,10.98
2023-12-17T08:22:23.475Z,11.46
2023-12-17T08:24:50.536Z,12.05
2023-12-17T08:27:17.780Z,12.24
2023-12-17T08:29:52.216Z,12.07
2023-12-17T08:32:19.274Z,11.95
2023-12-17T08:34:46.627Z,12.38
2023-12-17T08:37:14.381Z,12.69
2023-12-17T08:39:41.432Z,12.75
2023-12-17T08:42:09.020Z,12.26
2023-12-17T08:44:36.137Z,12.20
2023-12-17T08:47:04.361Z,12.20
2023-12-17T08:49:31.650Z,11.87
2023-12-17T08:51:58.814Z,10.81
2023-12-17T08:54:25.929Z,10.42
2023-12-17T08:56:53.342Z,10.39
2023-12-17T08:59:20.370Z,9.91
2023-12-17T09:01:47.335Z,9.46
2023-12-17T09:04:14.478Z,9.43
2023-12-17T09:06:43.737Z,9.20
2023-12-17T09:09:10.792Z,8.61
2023-12-17T09:11:37.796Z,8.52
2023-12-17T09:14:04.876Z,8.67
2023-12-17T09:16:32.225Z,8.65
2023-12-17T09:18:59.607Z,8.55
2023-12-17T09:21:27.524Z,8.50
2023-12-17T09:23:54.586Z,8.37
2023-12-17T09:26:21.686Z,8.29
2023-12-17T09:28:49.102Z,8.24
2023-12-17T09:31:16.255Z,8.31
2023-12-17T09:33:43.798Z,8.29
2023-12-17T09:36:10.966Z,8.12
2023-12-17T09:38:38.052Z,8.20
2023-12-17T09:41:08.170Z,8.27
2023-12-17T09:43:35.080Z,8.29
2023-12-17T09:46:02.074Z,8.04
2023-12-17T09:48:29.289Z,8.21
2023-12-17T09:50:56.357Z,8.50
2023-12-17T09:53:23.630Z,8.38
2023-12-17T09:55:50.745Z,7.51
2023-12-17T09:58:20.228Z,6.71
2023-12-17T10:00:47.746Z,5.90
2023-12-17T10:03:16.501Z,5.97
2023-12-17T10:05:44.289Z,6.34
2023-12-17T10:08:11.208Z,6.68
2023-12-17T10:10:38.129Z,6.56
2023-12-17T10:13:05.532Z,6.50
2023-12-17T10:15:37.272Z,6.49
2023-12-17T10:18:05.256Z,6.56
2023-12-17T10:20:32.427Z,6.82
2023-12-17T10:23:00.456Z,7.17
2023-12-17T10:25:29.959Z,7.06
2023-12-17T10:27:58.920Z,7.07
2023-12-17T10:30:30.870Z,7.11
2023-12-17T10:32:59.638Z,6.95
2023-12-17T10:35:26.772Z,6.90
2023-12-17T10:38:01.685Z,6.69
2023-12-17T10:40:31.530Z,6.39
2023-12-17T10:42:59.114Z,6.00
2023-12-17T10:45:27.138Z,6.14
2023-12-17T10:47:58.032Z,6.34
2023-12-17T10:50:26.091Z,6.34
2023-12-17T10:52:53.240Z,6.58
2023-12-17T10:55:21.043Z,6.93
2023-12-17T10:57:56.685Z,7.30
2023-12-17T11:00:25.961Z,7.20
2023-12-17T11:02:54.403Z,7.30
2023-12-17T11:05:21.442Z,7.03
2023-12-17T11:07:48.426Z,6.75
2023-12-17T11:10:17.001Z,6.62
2023-12-17T11:12:46.512Z,6.58
2023-12-17T11:15:13.922Z,6.34
2023-12-17T11:17:45.396Z,6.50
2023-12-17T11:20:13.949Z,6.69
2023-12-17T11:22:41.409Z,7.07
2023-12-17T11:25:12.461Z,7.13
2023-12-17T11:27:40.936Z,6.93
2023-12-17T11:30:30.576Z,6.71
2023-12-17T11:33:00.024Z,6.69
2023-12-17T11:35:29.241Z,6.82
2023-12-17T11:37:58.075Z,7.16
2023-12-17T11:40:25.350Z,7.52
2023-12-17T11:42:59.417Z,7.64
2023-12-17T11:45:37.874Z,7.59
2023-12-17T11:48:14.826Z,7.52
2023-12-17T11:50:52.232Z,7.55
2023-12-17T11:53:20.180Z,7.55
2023-12-17T11:55:53.681Z,7.71
2023-12-17T11:58:21.784Z,7.79
2023-12-17T12:01:12.271Z,7.43
2023-12-17T12:03:40.508Z,7.51
2023-12-17T12:06:10.907Z,7.66
2023-12-17T12:08:41.016Z,7.85
2023-12-17T12:11:09.762Z,7.92
2023-12-17T12:13:42.408Z,7.96
2023-12-17T12:16:10.372Z,8.07
2023-12-17T12:18:37.789Z,8.17
2023-12-17T12:21:20.007Z,8.12
2023-12-17T12:23:54.317Z,8.16
2023-12-17T12:26:25.781Z,8.29
2023-12-17T12:29:00.613Z,8.38
2023-12-17T12:31:28.933Z,8.47
2023-12-17T12:34:03.788Z,8.31
2023-12-17T12:36:44.356Z,8.61
2023-12-17T12:39:11.295Z,9.13
2023-12-17T12:41:43.348Z,9.59
2023-12-17T12:44:11.783Z,9.99
2023-12-17T12:46:39.018Z,10.64
2023-12-17T12:49:06.543Z,11.47
2023-12-17T12:51:34.192Z,12.48
2023-12-17T12:54:03.762Z,12.84
2023-12-17T12:56:31.150Z,13.07
2023-12-17T12:58:58.173Z,13.25
2023-12-17T13:01:25.268Z,13.37
2023-12-17T13:03:52.551Z,13.82
2023-12-17T13:06:20.060Z,13.72
2023-12-17T13:08:47.124Z,12.86
2023-12-17T13:11:14.316Z,11.30
2023-12-17T13:13:41.434Z,9.85
2023-12-17T13:16:09.866Z,8.44
2023-12-17T13:18:36.992Z,7.32
2023-12-17T13:21:04.378Z,6.37
2023-12-17T13:23:31.571Z,5.67
2023-12-17T13:26:04.249Z,5.21
2023-12-17T13:28:37.927Z,4.62
2023-12-17T13:31:05.349Z,4.09
2023-12-17T13:33:32.624Z,3.73
2023-12-17T13:35:59.684Z,3.53
2023-12-17T13:38:27.880Z,3.40
2023-12-17T13:41:44.874Z,3.22
2023-12-17T13:44:15.442Z,3.05
2023-12-17T13:46:42.493Z,2.94
2023-12-17T13:49:09.887Z,2.85
2023-12-17T13:51:40.055Z,2.79
2023-12-17T13:54:07.327Z,2.74
2023-12-17T13:56:39.097Z,2.70
2023-12-17T13:59:09.020Z,2.64
2023-12-17T14:01:36.073Z,2.64
2023-12-17T14:04:03.167Z,2.65
2023-12-17T14:06:30.163Z,2.61
2023-12-17T14:08:58.003Z,2.54
2023-12-17T14:11:33.528Z,2.52
2023-12-17T14:14:01.650Z,2.49
2023-12-17T14:16:32.533Z,2.42
2023-12-17T14:19:01.295Z,2.36
2023-12-17T14:21:30.817Z,2.26
2023-12-17T14:23:58.548Z,2.15
2023-12-17T14:26:26.045Z,2.06
2023-12-17T14:28:58.188Z,2.04
2023-12-17T14:31:31.836Z,1.99
2023-12-17T14:34:05.998Z,1.92
2023-12-17T14:36:39.009Z,1.86
2023-12-17T14:39:06.495Z,1.78
2023-12-17T14:41:33.913Z,1.68
2023-12-17T14:44:01.526Z,1.63
2023-12-17T14:46:28.569Z,1.53
2023-12-17T14:48:55.763Z,1.47
2023-12-17T14:51:23.020Z,1.39
2023-12-17T14:53:55.752Z,1.32
2023-12-17T14:56:25.924Z,1.26
2023-12-17T14:58:58.080Z,1.20
2023-12-17T15:01:34.870Z,1.13
2023-12-17T15:04:03.664Z,1.10
2023-12-17T15:06:31.413Z,1.02
2023-12-17T15:09:00.896Z,0.98
2023-12-17T15:11:29.696Z,0.85
2023-12-17T15:13:58.501Z,0.79
2023-12-17T15:16:25.808Z,0.71
2023-12-17T15:18:52.842Z,0.62
2023-12-17T15:21:22.271Z,0.54
2023-12-17T15:23:49.972Z,0.44
2023-12-17T15:26:17.828Z,0.44
2023-12-17T15:28:44.939Z,0.41
2023-12-17T15:31:15.935Z,0.37
2023-12-17T15:33:43.482Z,0.33
2023-12-17T15:36:10.736Z,0.27
2023-12-17T15:38:40.638Z,0.23
2023-12-17T15:41:08.810Z,0.17
2023-12-17T15:43:35.939Z,0.13
2023-12-17T15:46:04.337Z,0.12
2023-12-17T15:48:31.685Z,0.05
2023-12-17T15:50:59.165Z,0.02
2023-12-17T15:53:26.409Z,0.02
2023-12-17T15:55:53.483Z,0.00
2023-12-17T15:58:21.948Z,-0.01
2023-12-17T16:00:49.767Z,-0.07
2023-12-17T16:03:16.942Z,-0.08
2023-12-17T16:05:45.275Z,-0.14
2023-12-17T16:08:12.353Z,-0.14
2023-12-17T16:10:39.384Z,-0.21
2023-12-17T16:13:07.069Z,-0.25
2023-12-17T16:15:34.408Z,-0.26
2023-12-17T16:18:01.739Z,-0.32
2023-12-17T16:20:29.274Z,-0.33
2023-12-17T16:22:57.369Z,-0.39
2023-12-17T16:25:24.801Z,-0.48
2023-12-17T16:27:53.078Z,-0.48
2023-12-17T16:30:23.351Z,-0.53
2023-12-17T16:32:50.659Z,-0.57
2023-12-17T16:35:18.026Z,-0.57
2023-12-17T16:37:45.317Z,-0.62
2023-12-17T16:40:12.323Z,-0.66
2023-12-17T16:42:39.573Z,-0.69
2023-12-17T16:45:08.248Z,-0.69
2023-12-17T16:47:35.478Z,-0.73
2023-12-17T16:50:04.712Z,-0.79
2023-12-17T16:52:31.905Z,-0.87
2023-12-17T16:54:59.065Z,-0.96
2023-12-17T16:57:26.494Z,-0.96
2023-12-17T16:59:54.218Z,-0.96
2023-12-17T17:02:21.470Z,-0.94
2023-12-17T17:04:48.634Z,-0.94
2023-12-17T17:07:17.276Z,-0.93
2023-12-17T17:09:44.384Z,-0.97
2023-12-17T17:12:11.651Z,-1.01
2023-12-17T17:14:38.891Z,-1.11
2023-12-17T17:17:05.881Z,-1.16
2023-12-17T17:19:33.832Z,-1.18
2023-12-17T17:22:01.761Z,-1.19
2023-12-17T17:24:28.877Z,-1.19
2023-12-17T17:26:56.089Z,-1.18
2023-12-17T17:29:23.158Z,-1.12
2023-12-17T17:31:52.374Z,-1.14
2023-12-17T17:34:19.662Z,-1.19
2023-12-17T17:36:49.751Z,-1.21
2023-12-17T17:39:17.033Z,-1.25
2023-12-17T17:41:45.065Z,-1.30
2023-12-17T17:44:12.187Z,-1.32
2023-12-17T17:46:39.317Z,-1.30
2023-12-17T17:49:06.826Z,-1.28
2023-12-17T17:51:33.998Z,-1.32
2023-12-17T17:54:01.154Z,-1.34
2023-12-17T17:56:28.366Z,-1.35
2023-12-17T17:58:55.478Z,-1.34
2023-12-17T18:01:22.597Z,-1.41
2023-12-17T18:03:50.245Z,-1.48
2023-12-17T18:06:17.646Z,-1.42
2023-12-17T18:08:44.593Z,-1.42
2023-12-17T18:11:11.586Z,-1.42
2023-12-17T18:13:38.686Z,-1.38
2023-12-17T18:16:05.987Z,-1.42
2023-12-17T18:18:33.134Z,-1.42
2023-12-17T18:21:00.390Z,-1.51
2023-12-17T18:23:27.950Z,-1.53
2023-12-17T18:25:55.676Z,-1.56
2023-12-17T18:28:22.787Z,-1.53
2023-12-17T18:30:49.875Z,-1.53
2023-12-17T18:33:17.100Z,-1.53
2023-12-17T18:35:44.576Z,-1.55
2023-12-17T18:38:11.622Z,-1.59
2023-12-17T18:40:38.877Z,-1.66
2023-12-17T18:43:05.817Z,-1.72
2023-12-17T18:45:33.652Z,-1.74
2023-12-17T18:48:00.971Z,-1.80
2023-12-17T18:50:31.321Z,-1.87
2023-12-17T18:52:59.291Z,-1.89
2023-12-17T18:55:27.104Z,-1.90
2023-12-17T18:57:54.518Z,-1.91
2023-12-17T19:00:21.546Z,-1.93
2023-12-17T19:02:49.949Z,-1.90
2023-12-17T19:05:17.330Z,-1.90
2023-12-17T19:07:44.488Z,-1.91
2023-12-17T19:10:12.160Z,-1.93
2023-12-17T19:12:39.778Z,-1.93
2023-12-17T19:15:07.747Z,-1.93
2023-12-17T19:17:35.165Z,-1.94
2023-12-17T19:20:02.239Z,-1.95
2023-12-17T19:22:29.500Z,-2.04
2023-12-17T19:24:56.648Z,-2.01
2023-12-17T19:27:23.828Z,-2.03
2023-12-17T19:29:51.471Z,-2.04
2023-12-17T19:32:18.610Z,-1.97
2023-12-17T19:34:45.940Z,-2.03
2023-12-17T19:37:13.252Z,-2.04
2023-12-17T19:39:41.429Z,-2.10
2023-12-17T19:42:08.746Z,-2.10
2023-12-17T19:44:36.300Z,-2.17
2023-12-17T19:47:03.469Z,-2.18
2023-12-17T19:49:30.871Z,-2.22
2023-12-17T19:51:57.966Z,-2.25
2023-12-17T19:54:25.195Z,-2.27
2023-12-17T19:56:52.257Z,-2.27
2023-12-17T19:59:20.393Z,-2.27
2023-12-17T20:01:48.348Z,-2.25
2023-12-17T20:04:17.912Z,-2.22
2023-12-17T20:06:45.024Z,-2.21
2023-12-17T20:09:12.104Z,-2.17
2023-12-17T20:11:39.368Z,-2.10
2023-12-17T20:14:06.861Z,-2.12
2023-12-17T20:16:34.896Z,-2.07
2023-12-17T20:19:02.834Z,-2.08
2023-12-17T20:21:30.411Z,-2.10
2023-12-17T20:23:57.521Z,-2.14
2023-12-17T20:26:24.571Z,-2.20
2023-12-17T20:28:51.610Z,-2.21
2023-12-17T20:31:21.152Z,-2.20
2023-12-17T20:33:49.303Z,-2.22
2023-12-17T20:36:17.434Z,-2.25
2023-12-17T20:38:44.901Z,-2.30
2023-12-17T20:41:17.684Z,-2.30
2023-12-17T20:43:45.268Z,-2.37
2023-12-17T20:46:12.363Z,-2.40
2023-12-17T20:48:39.567Z,-2.49
2023-12-17T20:51:07.159Z,-2.49
2023-12-17T20:53:34.188Z,-2.48
2023-12-17T20:56:02.411Z,-2.45
2023-12-17T20:58:29.555Z,-2.41
2023-12-17T21:00:56.804Z,-2.37
2023-12-17T21:03:23.835Z,-2.37
2023-12-17T21:05:51.347Z,-2.35
2023-12-17T21:08:18.825Z,-2.35
2023-12-17T21:10:46.187Z,-2.37
2023-12-17T21:13:13.124Z,-2.40
2023-12-17T21:15:40.453Z,-2.41
2023-12-17T21:18:09.549Z,-2.46
2023-12-17T21:20:36.741Z,-2.46
2023-12-17T21:23:03.880Z,-2.46
2023-12-17T21:25:31.032Z,-2.46
2023-12-17T21:27:58.315Z,-2.46
2023-12-17T21:30:25.522Z,-2.45
2023-12-17T21:32:52.743Z,-2.51
2023-12-17T21:35:20.079Z,-2.56
2023-12-17T21:37:47.037Z,-2.53
2023-12-17T21:40:14.084Z,-2.53
2023-12-17T21:42:41.385Z,-2.49
2023-12-17T21:45:09.328Z,-2.52
2023-12-17T21:47:36.645Z,-2.48
2023-12-17T21:50:03.668Z,-2.48
2023-12-17T21:52:33.059Z,-2.52
2023-12-17T21:55:01.523Z,-2.52
2023-12-17T21:57:40.444Z,-2.53
2023-12-17T22:00:20.446Z,-2.46
2023-12-17T22:02:50.540Z,-2.49
2023-12-17T22:05:19.545Z,-2.52
2023-12-17T22:07:47.707Z,-2.51
2023-12-17T22:10:18.165Z,-2.51
2023-12-17T22:12:45.453Z,-2.51
2023-12-17T22:15:12.952Z,-2.52
2023-12-17T22:17:40.397Z,-2.45
2023-12-17T22:20:08.389Z,-2.44
2023-12-17T22:22:35.444Z,-2.41
2023-12-17T22:25:02.691Z,-2.35
2023-12-17T22:27:30.839Z,-2.32
2023-12-17T22:30:01.263Z,-2.32
2023-12-17T22:32:28.533Z,-2.31
2023-12-17T22:34:55.736Z,-2.34
2023-12-17T22:37:23.001Z,-2.40
2023-12-17T22:39:50.137Z,-2.46
2023-12-17T22:42:17.206Z,-2.48
2023-12-17T22:44:49.450Z,-2.42
2023-12-17T22:47:16.762Z,-2.41
2023-12-17T22:49:44.178Z,-2.40
2023-12-17T22:52:11.387Z,-2.42
2023-12-17T22:54:38.613Z,-2.44
2023-12-17T22:57:05.816Z,-2.49
2023-12-17T22:59:32.944Z,-2.51
2023-12-17T23:02:00.255Z,-2.55
2023-12-17T23:04:27.428Z,-2.53
2023-12-17T23:06:54.738Z,-2.53
2023-12-17T23:09:21.818Z,-2.53
2023-12-17T23:11:49.342Z,-2.53
2023-12-17T23:14:16.700Z,-2.51
2023-12-17T23:16:44.060Z,-2.45
2023-12-17T23:19:11.238Z,-2.38
2023-12-17T23:21:38.513Z,-2.40
2023-12-17T23:24:05.848Z,-2.45
2023-12-17T23:26:33.012Z,-2.51
2023-12-17T23:29:00.060Z,-2.49
2023-12-17T23:31:27.179Z,-2.52
2023-12-17T23:33:54.776Z,-2.56
2023-12-17T23:36:21.847Z,-2.58
2023-12-17T23:38:48.861Z,-2.56
2023-12-17T23:41:16.379Z,-2.53
2023-12-17T23:43:43.479Z,-2.48
2023-12-17T23:46:10.582Z,-2.46
2023-12-17T23:48:38.343Z,-2.44
2023-12-17T23:51:05.660Z,-2.44
2023-12-17T23:53:32.640Z,-2.42
2023-12-17T23:55:59.944Z,-2.40
2023-12-17T23:58:27.039Z,-2.40
